Time;durP1;ratioP1;P1;durP2;ratioP2;P2;SDS_P1;SDS_P2;PMS_P1;PMS_P2;Temp;Humidity;BMP_temperature;BMP_pressure;BME280_temperature;BME280_humidity;BME280_pressure;Samples;Min_cycle;Max_cycle;Signal;HPM_P1;HPM_P2
2023/12/30 00:00:22;;;;;;;12.57;5.10;;;;;;;;;;6094142;23;20638;-92
2023/12/30 00:03:34;;;;;;;10.38;4.63;;;;;;;;;;6096684;23;20232;-94
2023/12/30 00:06:47;;;;;;;10.47;5.10;;;;;;;;;;6097567;23;20467;-93
2023/12/30 00:09:59;;;;;;;12.40;5.77;;;;;;;;;;6098608;23;20174;-94
2023/12/30 00:13:11;;;;;;;14.57;6.03;;;;;;;;;;6099342;23;20170;-94
2023/12/30 00:16:22;;;;;;;15.33;6.20;;;;;;;;;;6097811;23;20161;-93
2023/12/30 00:19:36;;;;;;;13.48;5.80;;;;;;;;;;6096610;23;20230;-92
2023/12/30 00:22:49;;;;;;;13.48;5.53;;;;;;;;;;6098820;23;20165;-93
2023/12/30 00:26:00;;;;;;;17.23;7.23;;;;;;;;;;6098885;23;20198;-93
2023/12/30 00:29:12;;;;;;;21.00;8.47;;;;;;;;;;6097851;23;20475;-92
2023/12/30 00:32:25;;;;;;;17.17;6.63;;;;;;;;;;6098557;23;20154;-93
2023/12/30 00:35:36;;;;;;;10.50;5.28;;;;;;;;;;6098414;23;20173;-94
2023/12/30 00:38:50;;;;;;;12.00;5.38;;;;;;;;;;6098360;23;20174;-94
2023/12/30 00:42:02;;;;;;;10.90;5.30;;;;;;;;;;6095576;23;20182;-94
2023/12/30 00:45:14;;;;;;;11.57;5.10;;;;;;;;;;6094774;23;20177;-94
2023/12/30 00:48:26;;;;;;;18.57;5.50;;;;;;;;;;6093435;23;20265;-93
2023/12/30 00:51:38;;;;;;;9.30;4.87;;;;;;;;;;6094224;23;20243;-94
2023/12/30 00:54:51;;;;;;;13.05;5.45;;;;;;;;;;6094736;23;20582;-93
2023/12/30 00:58:03;;;;;;;10.37;4.67;;;;;;;;;;6093109;23;20201;-94
2023/12/30 01:01:16;;;;;;;8.20;4.50;;;;;;;;;;6094012;23;20376;-94
2023/12/30 01:04:28;;;;;;;9.93;4.88;;;;;;;;;;6095884;23;20170;-92
2023/12/30 01:07:39;;;;;;;9.60;4.40;;;;;;;;;;6095283;23;20200;-92
2023/12/30 01:10:51;;;;;;;7.83;3.97;;;;;;;;;;6094163;23;20166;-91
2023/12/30 01:14:03;;;;;;;8.65;4.35;;;;;;;;;;6095192;23;20150;-93
2023/12/30 01:17:19;;;;;;;11.40;4.40;;;;;;;;;;6094091;23;20178;-93
2023/12/30 01:20:30;;;;;;;9.30;4.73;;;;;;;;;;6096266;23;20610;-93
2023/12/30 01:23:43;;;;;;;12.90;5.27;;;;;;;;;;6097117;23;20622;-92
2023/12/30 01:26:56;;;;;;;10.27;5.37;;;;;;;;;;6095796;23;20197;-93
2023/12/30 01:30:09;;;;;;;9.03;4.60;;;;;;;;;;6095405;23;20174;-93
2023/12/30 01:33:20;;;;;;;12.05;4.95;;;;;;;;;;6096634;23;20170;-94
2023/12/30 01:36:32;;;;;;;11.70;4.95;;;;;;;;;;6095720;23;20177;-94
2023/12/30 01:39:43;;;;;;;11.35;4.82;;;;;;;;;;6094426;23;20169;-93
2023/12/30 01:43:02;;;;;;;11.38;4.78;;;;;;;;;;6096513;23;20178;-93
2023/12/30 01:46:15;;;;;;;9.67;4.87;;;;;;;;;;6096583;23;20198;-95
2023/12/30 01:49:29;;;;;;;9.95;4.53;;;;;;;;;;6097448;23;20158;-93
2023/12/30 01:52:40;;;;;;;9.13;4.70;;;;;;;;;;6096424;23;20498;-92
2023/12/30 01:55:52;;;;;;;11.30;4.37;;;;;;;;;;6096653;23;20157;-92
2023/12/30 01:59:07;;;;;;;10.53;4.63;;;;;;;;;;6095326;23;20189;-93
2023/12/30 02:02:25;;;;;;;29.83;14.35;;;;;;;;;;6100492;23;20161;-94
2023/12/30 02:05:40;;;;;;;8.00;4.40;;;;;;;;;;6095263;23;20165;-95
2023/12/30 02:08:51;;;;;;;9.35;4.40;;;;;;;;;;6097942;23;20166;-93
2023/12/30 02:12:02;;;;;;;12.53;4.37;;;;;;;;;;6096403;23;20166;-94
2023/12/30 02:15:18;;;;;;;10.52;4.57;;;;;;;;;;6097843;23;20174;-94
2023/12/30 02:18:30;;;;;;;9.53;4.40;;;;;;;;;;6094889;23;20158;-95
2023/12/30 02:21:42;;;;;;;8.10;3.70;;;;;;;;;;6096508;23;20158;-95
2023/12/30 02:24:59;;;;;;;9.90;4.30;;;;;;;;;;6094239;23;20166;-94
2023/12/30 02:28:12;;;;;;;8.73;3.93;;;;;;;;;;6095580;23;20226;-95
2023/12/30 02:31:24;;;;;;;8.77;4.57;;;;;;;;;;6095704;23;20181;-95
2023/12/30 02:34:35;;;;;;;10.23;4.00;;;;;;;;;;6095141;23;20202;-93
2023/12/30 02:37:46;;;;;;;8.63;4.23;;;;;;;;;;6094915;23;20173;-94
2023/12/30 02:41:00;;;;;;;10.87;3.60;;;;;;;;;;6095092;23;20614;-93
2023/12/30 02:44:15;;;;;;;8.13;3.67;;;;;;;;;;6095835;23;20611;-94
2023/12/30 02:47:27;;;;;;;9.53;4.20;;;;;;;;;;6093433;23;20201;-94
2023/12/30 02:50:39;;;;;;;9.10;4.23;;;;;;;;;;6096113;23;20265;-94
2023/12/30 02:53:50;;;;;;;9.63;3.70;;;;;;;;;;6097407;23;20162;-94
2023/12/30 02:57:04;;;;;;;10.83;4.50;;;;;;;;;;6096316;23;20586;-94
2023/12/30 03:00:17;;;;;;;7.97;3.90;;;;;;;;;;6095605;23;20165;-93
2023/12/30 03:03:29;;;;;;;8.00;4.33;;;;;;;;;;6094388;23;20154;-94
2023/12/30 03:06:40;;;;;;;10.83;3.80;;;;;;;;;;6095827;23;20323;-93
2023/12/30 03:09:52;;;;;;;6.77;3.50;;;;;;;;;;6094697;23;20246;-94
2023/12/30 03:13:06;;;;;;;7.80;3.90;;;;;;;;;;6095659;23;20174;-94
2023/12/30 03:16:18;;;;;;;10.00;4.03;;;;;;;;;;6093931;23;20170;-94
2023/12/30 03:19:30;;;;;;;8.40;4.00;;;;;;;;;;6094661;23;20157;-93
2023/12/30 03:22:42;;;;;;;6.73;3.63;;;;;;;;;;6095368;23;20169;-94
2023/12/30 03:25:54;;;;;;;8.40;3.97;;;;;;;;;;6096072;23;20166;-94
2023/12/30 03:29:08;;;;;;;11.33;4.90;;;;;;;;;;6094568;23;20218;-93
2023/12/30 03:32:20;;;;;;;18.83;6.30;;;;;;;;;;6095376;23;20175;-94
2023/12/30 03:35:32;;;;;;;14.53;5.60;;;;;;;;;;6095419;23;20158;-93
2023/12/30 03:38:43;;;;;;;12.83;5.20;;;;;;;;;;6094385;23;20286;-92
2023/12/30 03:41:54;;;;;;;8.00;4.13;;;;;;;;;;6095581;23;20170;-94
2023/12/30 03:45:09;;;;;;;10.23;4.07;;;;;;;;;;6094222;23;20166;-94
2023/12/30 03:48:21;;;;;;;7.53;3.83;;;;;;;;;;6094399;23;20197;-95
2023/12/30 03:51:32;;;;;;;7.90;4.10;;;;;;;;;;6093919;23;20185;-93
2023/12/30 03:54:43;;;;;;;9.07;4.70;;;;;;;;;;6094692;23;20213;-93
2023/12/30 03:57:59;;;;;;;10.47;4.07;;;;;;;;;;6094600;23;20262;-94
2023/12/30 04:01:13;;;;;;;8.97;4.17;;;;;;;;;;6096743;23;20162;-92
2023/12/30 04:04:24;;;;;;;7.33;3.53;;;;;;;;;;6096789;23;20170;-93
2023/12/30 04:07:36;;;;;;;9.90;3.67;;;;;;;;;;6096292;23;20181;-93
2023/12/30 04:10:47;;;;;;;7.97;3.70;;;;;;;;;;6095645;23;20165;-93
2023/12/30 04:13:58;;;;;;;9.23;3.70;;;;;;;;;;6095946;23;20153;-92
2023/12/30 04:17:12;;;;;;;8.33;3.70;;;;;;;;;;6096318;23;20152;-93
2023/12/30 04:20:23;;;;;;;6.87;3.80;;;;;;;;;;6095827;23;20154;-94
2023/12/30 04:23:36;;;;;;;7.13;3.53;;;;;;;;;;6095208;23;20174;-95
2023/12/30 04:26:51;;;;;;;7.97;3.80;;;;;;;;;;6094981;23;20201;-93
2023/12/30 04:30:02;;;;;;;13.57;3.90;;;;;;;;;;6094991;23;20249;-93
2023/12/30 04:33:15;;;;;;;6.00;3.33;;;;;;;;;;6095352;23;20187;-94
2023/12/30 04:36:27;;;;;;;6.73;3.30;;;;;;;;;;6094227;23;20174;-95
2023/12/30 04:39:39;;;;;;;7.90;3.40;;;;;;;;;;6094759;23;20169;-93
2023/12/30 04:42:50;;;;;;;7.03;3.10;;;;;;;;;;6094247;23;20222;-95
2023/12/30 04:46:01;;;;;;;11.93;3.33;;;;;;;;;;6094945;23;20157;-94
2023/12/30 04:49:15;;;;;;;4.27;2.67;;;;;;;;;;6096701;23;20222;-95
2023/12/30 04:52:28;;;;;;;8.00;3.20;;;;;;;;;;6096332;23;20169;-94
2023/12/30 04:55:44;;;;;;;7.77;3.10;;;;;;;;;;6095121;23;20158;-94
2023/12/30 04:58:55;;;;;;;9.33;3.07;;;;;;;;;;6098380;23;20242;-94
2023/12/30 05:02:07;;;;;;;6.87;3.67;;;;;;;;;;6099890;23;20162;-95
2023/12/30 05:05:24;;;;;;;4.53;2.83;;;;;;;;;;6098550;23;20304;-93
2023/12/30 05:08:36;;;;;;;5.77;3.00;;;;;;;;;;6097463;23;20184;-95
2023/12/30 05:11:48;;;;;;;7.88;3.40;;;;;;;;;;6098751;23;20174;-93
2023/12/30 05:15:01;;;;;;;5.87;3.03;;;;;;;;;;6098664;23;20228;-94
2023/12/30 05:18:13;;;;;;;8.70;2.80;;;;;;;;;;6097349;23;20166;-95
2023/12/30 05:21:26;;;;;;;4.87;2.90;;;;;;;;;;6095908;23;20218;-95
2023/12/30 05:24:37;;;;;;;8.77;2.97;;;;;;;;;;6095083;23;20177;-93
2023/12/30 05:27:53;;;;;;;5.20;2.67;;;;;;;;;;6093328;23;20279;-92
2023/12/30 05:31:05;;;;;;;6.67;3.10;;;;;;;;;;6094441;23;20173;-93
2023/12/30 05:34:17;;;;;;;7.37;3.33;;;;;;;;;;6093822;23;20270;-92
2023/12/30 05:37:31;;;;;;;6.60;3.20;;;;;;;;;;6094246;23;20169;-94
2023/12/30 05:40:42;;;;;;;7.63;3.17;;;;;;;;;;6095555;23;20218;-94
2023/12/30 05:43:55;;;;;;;7.97;2.90;;;;;;;;;;6094699;23;20170;-93
2023/12/30 05:47:07;;;;;;;7.63;3.47;;;;;;;;;;6095485;23;20193;-93
2023/12/30 05:50:19;;;;;;;6.57;3.10;;;;;;;;;;6096310;23;20249;-93
2023/12/30 05:53:32;;;;;;;5.53;2.77;;;;;;;;;;6096442;23;20169;-93
2023/12/30 05:56:45;;;;;;;6.23;3.37;;;;;;;;;;6095953;23;20218;-92
2023/12/30 05:59:56;;;;;;;6.77;3.00;;;;;;;;;;6096345;23;20193;-93
2023/12/30 06:03:09;;;;;;;9.50;3.47;;;;;;;;;;6095032;23;20182;-92
2023/12/30 06:06:20;;;;;;;6.70;2.87;;;;;;;;;;6096764;23;20166;-93
2023/12/30 06:09:34;;;;;;;6.03;2.77;;;;;;;;;;6096591;23;20174;-92
2023/12/30 06:12:45;;;;;;;10.03;3.50;;;;;;;;;;6097218;23;20174;-95
2023/12/30 06:15:57;;;;;;;10.13;3.40;;;;;;;;;;6094339;23;20185;-95
2023/12/30 06:19:08;;;;;;;7.13;3.73;;;;;;;;;;6095494;23;20211;-95
2023/12/30 06:22:19;;;;;;;8.93;3.77;;;;;;;;;;6096750;23;20165;-93
2023/12/30 06:25:33;;;;;;;10.83;3.43;;;;;;;;;;6096386;23;20169;-92
2023/12/30 06:28:46;;;;;;;8.27;3.83;;;;;;;;;;6097383;23;20290;-94
2023/12/30 06:31:59;;;;;;;9.47;3.93;;;;;;;;;;6099343;23;20162;-94
2023/12/30 06:35:10;;;;;;;8.55;3.40;;;;;;;;;;6097232;23;20166;-94
2023/12/30 06:38:22;;;;;;;6.10;3.60;;;;;;;;;;6096625;23;20244;-93
2023/12/30 06:41:36;;;;;;;8.83;3.43;;;;;;;;;;6097136;23;20206;-95
2023/12/30 06:44:48;;;;;;;8.40;3.53;;;;;;;;;;6096171;23;20170;-93
2023/12/30 06:47:59;;;;;;;8.73;3.83;;;;;;;;;;6098641;23;20640;-94
2023/12/30 06:51:11;;;;;;;7.93;4.10;;;;;;;;;;6095554;23;20206;-94
2023/12/30 06:54:23;;;;;;;11.80;3.50;;;;;;;;;;6095643;23;20343;-93
2023/12/30 06:57:37;;;;;;;5.93;3.30;;;;;;;;;;6097241;23;20723;-95
2023/12/30 07:00:49;;;;;;;9.47;3.37;;;;;;;;;;6095914;23;20174;-93
2023/12/30 07:04:06;;;;;;;8.77;3.97;;;;;;;;;;6096689;23;20249;-93
2023/12/30 07:07:17;;;;;;;10.67;3.70;;;;;;;;;;6100205;23;20246;-94
2023/12/30 07:10:30;;;;;;;6.20;3.43;;;;;;;;;;6100569;23;20495;-95
2023/12/30 07:13:45;;;;;;;6.87;3.60;;;;;;;;;;6100124;23;20149;-94
2023/12/30 07:16:56;;;;;;;6.55;3.65;;;;;;;;;;6101313;23;20153;-93
2023/12/30 07:20:09;;;;;;;6.18;3.17;;;;;;;;;;6101396;23;20175;-95
2023/12/30 07:23:21;;;;;;;5.40;3.22;;;;;;;;;;6102389;23;20199;-93
2023/12/30 07:26:34;;;;;;;6.72;2.90;;;;;;;;;;6103640;23;20257;-94
2023/12/30 07:29:48;;;;;;;5.20;2.83;;;;;;;;;;6100638;23;20162;-94
2023/12/30 07:32:59;;;;;;;8.13;3.40;;;;;;;;;;6099084;23;20174;-93
2023/12/30 07:36:11;;;;;;;8.48;3.78;;;;;;;;;;6099735;23;20223;-94
2023/12/30 07:39:28;;;;;;;8.68;4.53;;;;;;;;;;6098085;23;20227;-95
2023/12/30 07:42:39;;;;;;;7.78;3.70;;;;;;;;;;6098469;23;20181;-94
2023/12/30 07:45:55;;;;;;;9.65;4.70;;;;;;;;;;6100800;23;20288;-94
2023/12/30 07:49:08;;;;;;;8.88;4.00;;;;;;;;;;6103439;23;20202;-95
2023/12/30 07:52:20;;;;;;;8.43;3.78;;;;;;;;;;6102221;23;20164;-94
2023/12/30 09:26:59;;;;;;;1.90;1.00;;;;;;;;;;6164564;22;1407656;-91
2023/12/30 09:30:05;;;;;;;3.10;1.10;;;;;;;;;;6231938;23;20220;-92
2023/12/30 09:33:10;;;;;;;1.83;0.90;;;;;;;;;;6230354;23;20178;-92
2023/12/30 09:36:17;;;;;;;2.53;1.10;;;;;;;;;;6233868;23;20175;-94
2023/12/30 09:39:24;;;;;;;2.38;0.90;;;;;;;;;;6234114;23;20562;-93
2023/12/30 09:42:32;;;;;;;3.40;0.90;;;;;;;;;;6233186;23;20163;-91
2023/12/30 09:45:39;;;;;;;3.42;0.90;;;;;;;;;;6233627;23;20168;-94
2023/12/30 09:48:47;;;;;;;8.27;1.20;;;;;;;;;;6234476;23;20195;-92
2023/12/30 09:51:52;;;;;;;2.97;1.33;;;;;;;;;;6234797;23;20171;-90
2023/12/30 09:55:01;;;;;;;2.95;0.80;;;;;;;;;;6233384;23;20167;-91
2023/12/30 09:58:09;;;;;;;2.97;1.08;;;;;;;;;;6233505;23;20515;-91
2023/12/30 10:01:14;;;;;;;5.20;1.65;;;;;;;;;;6232026;23;20163;-90
2023/12/30 10:04:19;;;;;;;4.90;1.20;;;;;;;;;;6232112;23;20171;-91
2023/12/30 10:07:24;;;;;;;4.93;1.20;;;;;;;;;;6233001;23;20198;-93
2023/12/30 10:10:43;;;;;;;1.98;1.05;;;;;;;;;;6233388;23;20178;-93
2023/12/30 10:13:53;;;;;;;3.75;1.08;;;;;;;;;;6232752;23;20155;-93
2023/12/30 10:16:59;;;;;;;3.75;1.20;;;;;;;;;;6233458;23;20191;-92
2023/12/30 10:20:05;;;;;;;1.20;0.90;;;;;;;;;;6233281;23;20495;-91
2023/12/30 10:23:11;;;;;;;7.13;1.90;;;;;;;;;;6233542;23;20235;-93
2023/12/30 10:26:16;;;;;;;3.08;1.58;;;;;;;;;;6234763;23;20191;-92
2023/12/30 10:29:24;;;;;;;7.53;1.83;;;;;;;;;;6232946;23;20151;-93
2023/12/30 10:32:31;;;;;;;9.40;1.58;;;;;;;;;;6232816;23;20187;-92
2023/12/30 10:35:47;;;;;;;4.72;2.05;;;;;;;;;;6233074;23;20163;-93
2023/12/30 10:38:53;;;;;;;5.18;1.58;;;;;;;;;;6232857;23;20166;-92
2023/12/30 10:41:59;;;;;;;2.60;1.35;;;;;;;;;;6231612;23;20283;-93
2023/12/30 10:45:06;;;;;;;5.70;1.50;;;;;;;;;;6232166;23;20147;-93
2023/12/30 10:48:13;;;;;;;2.88;1.10;;;;;;;;;;6233941;23;20187;-93
2023/12/30 10:51:22;;;;;;;4.68;2.08;;;;;;;;;;6230096;23;20155;-94
2023/12/30 10:54:32;;;;;;;4.35;1.40;;;;;;;;;;6229225;23;20171;-92
2023/12/30 10:57:38;;;;;;;5.28;1.73;;;;;;;;;;6228789;23;20198;-92
2023/12/30 11:00:50;;;;;;;4.00;1.75;;;;;;;;;;6230658;23;20175;-93
2023/12/30 11:04:00;;;;;;;5.38;1.80;;;;;;;;;;6230153;23;20168;-94
2023/12/30 11:07:11;;;;;;;5.72;1.50;;;;;;;;;;6229736;23;20174;-91
2023/12/30 11:10:17;;;;;;;4.78;1.85;;;;;;;;;;6230941;23;20162;-92
2023/12/30 11:13:24;;;;;;;3.17;1.60;;;;;;;;;;6232215;23;20163;-91
2023/12/30 11:16:35;;;;;;;4.57;1.88;;;;;;;;;;6235862;23;20196;-93
2023/12/30 11:19:43;;;;;;;6.63;1.50;;;;;;;;;;6233218;23;20171;-90
2023/12/30 11:22:49;;;;;;;7.28;1.48;;;;;;;;;;6233719;23;20167;-92
2023/12/30 11:25:54;;;;;;;3.85;1.20;;;;;;;;;;6234202;23;20238;-93
2023/12/30 11:29:01;;;;;;;3.60;1.50;;;;;;;;;;6233288;23;20611;-93
2023/12/30 11:32:10;;;;;;;4.40;1.30;;;;;;;;;;6232343;23;20227;-92
2023/12/30 11:38:34;;;;;;;3.55;1.60;;;;;;;;;;6233687;23;20222;-92
2023/12/30 11:41:39;;;;;;;4.13;1.70;;;;;;;;;;6233155;23;20147;-93
2023/12/30 11:44:45;;;;;;;3.20;1.65;;;;;;;;;;6231723;23;20175;-90
2023/12/30 11:47:55;;;;;;;2.65;1.33;;;;;;;;;;6234485;23;20174;-93
2023/12/30 11:51:01;;;;;;;5.47;1.70;;;;;;;;;;6234933;23;20235;-93
2023/12/30 11:54:08;;;;;;;6.03;1.60;;;;;;;;;;6231607;23;20263;-91
2023/12/30 11:57:15;;;;;;;9.98;1.67;;;;;;;;;;6232143;23;20274;-94
2023/12/30 12:00:21;;;;;;;5.22;1.50;;;;;;;;;;6230756;23;20499;-93
2023/12/30 12:03:30;;;;;;;3.78;1.73;;;;;;;;;;6232780;23;20202;-91
2023/12/30 12:06:37;;;;;;;6.95;2.00;;;;;;;;;;6230582;23;20183;-92
2023/12/30 12:09:43;;;;;;;4.40;1.65;;;;;;;;;;6229544;23;20626;-92
2023/12/30 12:13:02;;;;;;;5.57;2.00;;;;;;;;;;6231002;23;20441;-92
2023/12/30 12:16:09;;;;;;;3.90;1.60;;;;;;;;;;6231061;23;20183;-91
2023/12/30 12:19:25;;;;;;;3.97;1.50;;;;;;;;;;6231555;23;20199;-93
2023/12/30 12:22:31;;;;;;;4.22;1.50;;;;;;;;;;6229361;23;20203;-91
2023/12/30 12:25:36;;;;;;;3.58;1.42;;;;;;;;;;6231438;23;20168;-92
2023/12/30 12:28:42;;;;;;;4.75;1.70;;;;;;;;;;6231585;23;20238;-91
2023/12/30 12:31:50;;;;;;;5.30;2.05;;;;;;;;;;6234487;23;20215;-92
2023/12/30 12:34:57;;;;;;;4.82;2.63;;;;;;;;;;6234775;23;20170;-92
2023/12/30 12:38:10;;;;;;;9.55;3.72;;;;;;;;;;6234752;23;20191;-92
2023/12/30 12:41:18;;;;;;;6.28;2.30;;;;;;;;;;6235926;23;20220;-92
2023/12/30 12:44:24;;;;;;;10.18;2.30;;;;;;;;;;6239210;23;20159;-93
2023/12/30 13:02:56;;;;;;;5.13;2.40;;;;;;;;;;6155453;23;20213;-90
2023/12/30 13:06:12;;;;;;;5.70;2.30;;;;;;;;;;6189390;23;20264;-93
2023/12/30 15:50:52;;;;;;;9.98;4.35;;;;;;;;;;6124867;23;20213;-93
2023/12/30 15:54:00;;;;;;;18.92;4.50;;;;;;;;;;6147934;23;20172;-91
2023/12/30 15:57:06;;;;;;;11.82;4.15;;;;;;;;;;6152798;23;20167;-91
2023/12/30 16:00:12;;;;;;;12.60;3.80;;;;;;;;;;6154462;23;20214;-93
2023/12/30 16:03:18;;;;;;;11.77;3.70;;;;;;;;;;6154354;23;20216;-94
2023/12/30 16:06:26;;;;;;;14.93;5.65;;;;;;;;;;6155725;23;20209;-96
2023/12/30 16:09:34;;;;;;;37.55;14.43;;;;;;;;;;6156446;23;20233;-92
2023/12/30 16:12:40;;;;;;;36.88;13.23;;;;;;;;;;6156621;23;20172;-92
2023/12/30 16:15:52;;;;;;;21.92;9.18;;;;;;;;;;6158418;23;20168;-92
2023/12/30 16:18:58;;;;;;;31.38;10.13;;;;;;;;;;6157213;23;20260;-91
2023/12/30 16:22:04;;;;;;;23.45;8.82;;;;;;;;;;6159280;23;20164;-94
2023/12/30 17:06:43;;;;;;;15.15;7.05;;;;;;;;;;6123697;23;20435;-93
2023/12/30 17:09:49;;;;;;;15.90;6.80;;;;;;;;;;6133413;23;20185;-93
2023/12/30 17:12:55;;;;;;;12.98;5.80;;;;;;;;;;6131141;23;20169;-93
2023/12/30 17:16:00;;;;;;;14.10;6.07;;;;;;;;;;6133331;23;20178;-94
2023/12/30 17:19:06;;;;;;;21.85;6.97;;;;;;;;;;6131753;23;20270;-94
2023/12/30 17:22:15;;;;;;;35.53;14.32;;;;;;;;;;6115644;23;20191;-93
2023/12/30 17:25:20;;;;;;;11.80;5.65;;;;;;;;;;6114877;23;20170;-93
2023/12/30 17:28:27;;;;;;;16.05;6.10;;;;;;;;;;6133805;23;20319;-92
2023/12/30 17:31:33;;;;;;;11.13;5.03;;;;;;;;;;6134288;23;20174;-94
2023/12/30 17:34:42;;;;;;;11.68;4.80;;;;;;;;;;6131984;23;20214;-93
2023/12/30 17:37:50;;;;;;;18.35;7.78;;;;;;;;;;6133035;23;20196;-94
2023/12/30 17:40:56;;;;;;;100.97;33.67;;;;;;;;;;6114830;23;20195;-93
2023/12/30 17:47:22;;;;;;;19.95;7.63;;;;;;;;;;6114492;23;20159;-93
2023/12/30 17:50:27;;;;;;;17.80;6.80;;;;;;;;;;6130757;23;20210;-95
2023/12/30 17:53:35;;;;;;;18.70;7.23;;;;;;;;;;6131804;23;20170;-96
2023/12/30 17:56:40;;;;;;;20.17;8.53;;;;;;;;;;6131330;23;20174;-96
2023/12/30 17:59:46;;;;;;;36.88;15.40;;;;;;;;;;6135169;23;20197;-94
2023/12/30 18:02:54;;;;;;;38.97;18.00;;;;;;;;;;6117547;23;20289;-93
2023/12/30 18:06:03;;;;;;;22.10;8.33;;;;;;;;;;6134398;23;20188;-94
2023/12/30 18:09:12;;;;;;;21.73;8.18;;;;;;;;;;6116354;23;20174;-94
2023/12/30 18:12:19;;;;;;;20.25;9.38;;;;;;;;;;6116461;23;20214;-94
2023/12/30 18:19:40;;;;;;;137.83;57.60;;;;;;;;;;6117560;23;20202;-93
2023/12/30 18:22:46;;;;;;;34.30;11.60;;;;;;;;;;6115587;23;20617;-93
2023/12/30 18:25:56;;;;;;;29.30;11.47;;;;;;;;;;6116347;23;20174;-95
2023/12/30 18:29:03;;;;;;;17.07;7.43;;;;;;;;;;6116863;23;20161;-95
2023/12/30 18:32:10;;;;;;;17.10;8.10;;;;;;;;;;6134731;23;20161;-93
2023/12/30 18:35:17;;;;;;;21.17;7.68;;;;;;;;;;6117033;23;20218;-94
2023/12/30 18:47:14;;;;;;;18.17;8.07;;;;;;;;;;6164416;23;20205;-93
2023/12/30 18:53:41;;;;;;;18.73;8.10;;;;;;;;;;6157173;23;20173;-95
2023/12/30 18:56:48;;;;;;;165.73;65.33;;;;;;;;;;6158745;23;20169;-93
2023/12/30 18:59:56;;;;;;;50.53;23.83;;;;;;;;;;6157728;23;20193;-93
2023/12/30 19:03:06;;;;;;;29.53;14.60;;;;;;;;;;6160241;23;20180;-92
2023/12/30 19:06:13;;;;;;;19.87;8.80;;;;;;;;;;6159013;23;20161;-93
2023/12/30 19:09:20;;;;;;;19.83;9.23;;;;;;;;;;6159327;23;20196;-93
2023/12/30 19:12:33;;;;;;;293.43;109.87;;;;;;;;;;6160093;23;20188;-91
2023/12/30 19:15:41;;;;;;;25.73;10.13;;;;;;;;;;6159483;23;20157;-92
2023/12/30 19:18:49;;;;;;;16.67;7.50;;;;;;;;;;6157872;23;20195;-91
2023/12/30 19:22:04;;;;;;;14.07;6.97;;;;;;;;;;6158253;23;20185;-93
2023/12/30 19:25:14;;;;;;;43.17;18.40;;;;;;;;;;6156505;23;20243;-95
2023/12/30 19:28:20;;;;;;;38.03;15.33;;;;;;;;;;6156360;23;20196;-93
2023/12/30 19:31:25;;;;;;;49.07;17.73;;;;;;;;;;6158194;23;20188;-94
2023/12/30 19:34:34;;;;;;;71.67;30.20;;;;;;;;;;6158343;23;20160;-94
2023/12/30 19:37:43;;;;;;;45.70;17.70;;;;;;;;;;6156751;23;20249;-93
2023/12/30 19:40:52;;;;;;;36.47;13.50;;;;;;;;;;6157175;23;20172;-93
2023/12/30 19:43:58;;;;;;;25.50;11.17;;;;;;;;;;6157869;23;20157;-93
2023/12/30 19:47:03;;;;;;;28.70;11.20;;;;;;;;;;6157808;23;20191;-95
2023/12/30 19:50:15;;;;;;;22.73;9.30;;;;;;;;;;6159267;23;20217;-92
2023/12/30 19:53:20;;;;;;;40.27;16.20;;;;;;;;;;6158434;23;20165;-93
2023/12/30 19:56:28;;;;;;;19.87;8.47;;;;;;;;;;6158003;23;20185;-92
2023/12/30 19:59:34;;;;;;;22.50;9.37;;;;;;;;;;6160595;23;20176;-93
2023/12/30 20:02:41;;;;;;;68.03;27.97;;;;;;;;;;6161046;23;20214;-93
2023/12/30 20:05:50;;;;;;;26.57;10.23;;;;;;;;;;6160853;23;20168;-92
2023/12/30 20:08:55;;;;;;;91.60;35.43;;;;;;;;;;6158167;23;20214;-94
2023/12/30 20:12:01;;;;;;;19.13;10.33;;;;;;;;;;6156916;23;20153;-93
2023/12/30 20:15:08;;;;;;;18.43;8.40;;;;;;;;;;6157526;23;20169;-92
2023/12/30 20:18:14;;;;;;;13.77;7.37;;;;;;;;;;6156251;23;20212;-93
2023/12/30 20:21:22;;;;;;;15.47;7.47;;;;;;;;;;6155961;23;20174;-93
2023/12/30 20:24:30;;;;;;;16.23;7.20;;;;;;;;;;6173877;23;20236;-93
2023/12/30 20:27:37;;;;;;;19.50;7.73;;;;;;;;;;6173678;23;20313;-94
2023/12/30 20:30:43;;;;;;;36.97;16.03;;;;;;;;;;6156819;23;20220;-94
2023/12/30 20:33:48;;;;;;;39.33;14.60;;;;;;;;;;6157058;23;20233;-91
2023/12/30 20:36:56;;;;;;;16.97;7.03;;;;;;;;;;6158046;23;20152;-93
2023/12/30 20:40:02;;;;;;;14.33;6.10;;;;;;;;;;6155745;23;20184;-95
2023/12/30 20:43:08;;;;;;;15.50;6.53;;;;;;;;;;6158176;23;20189;-94
2023/12/30 20:46:14;;;;;;;19.23;6.30;;;;;;;;;;6156736;23;20165;-93
2023/12/30 20:49:20;;;;;;;14.43;5.80;;;;;;;;;;6127505;23;20169;-94
2023/12/30 20:52:27;;;;;;;18.70;6.33;;;;;;;;;;6126968;23;20182;-94
2023/12/30 20:55:32;;;;;;;13.57;5.90;;;;;;;;;;6129006;23;20173;-94
2023/12/30 20:58:37;;;;;;;14.50;5.90;;;;;;;;;;6128131;23;20540;-94
2023/12/30 21:01:43;;;;;;;21.80;8.10;;;;;;;;;;6127668;23;20170;-92
2023/12/30 21:04:49;;;;;;;18.83;7.20;;;;;;;;;;6128556;23;20189;-94
2023/12/30 21:07:57;;;;;;;19.20;7.60;;;;;;;;;;6130029;23;20156;-95
2023/12/30 21:11:03;;;;;;;19.87;7.77;;;;;;;;;;6130277;23;20177;-94
2023/12/30 21:14:10;;;;;;;22.57;8.80;;;;;;;;;;6130679;23;20169;-94
2023/12/30 21:17:17;;;;;;;56.83;18.07;;;;;;;;;;6129543;23;20190;-93
2023/12/30 21:20:27;;;;;;;42.70;15.33;;;;;;;;;;6129022;23;20192;-93
2023/12/30 21:23:34;;;;;;;19.17;8.30;;;;;;;;;;6146603;23;20231;-94
2023/12/30 21:26:40;;;;;;;12.87;6.83;;;;;;;;;;6129296;23;20218;-94
2023/12/30 21:29:46;;;;;;;15.87;7.10;;;;;;;;;;6131160;23;20184;-94
2023/12/30 21:32:52;;;;;;;16.23;7.10;;;;;;;;;;6130081;23;20161;-92
2023/12/30 21:36:02;;;;;;;18.10;7.20;;;;;;;;;;6129812;23;20157;-94
2023/12/30 21:39:11;;;;;;;19.27;7.63;;;;;;;;;;6130334;23;20197;-94
2023/12/30 21:42:17;;;;;;;113.10;34.07;;;;;;;;;;6112725;23;20221;-94
2023/12/30 21:45:23;;;;;;;34.20;8.00;;;;;;;;;;6130142;23;20177;-93
2023/12/30 21:48:28;;;;;;;92.33;28.33;;;;;;;;;;6152924;23;20188;-94
2023/12/30 21:51:34;;;;;;;55.07;8.93;;;;;;;;;;6158193;23;20157;-92
2023/12/30 21:54:45;;;;;;;25.47;8.33;;;;;;;;;;6156129;23;20179;-95
2023/12/30 21:57:52;;;;;;;41.30;8.33;;;;;;;;;;6157479;23;20168;-95
2023/12/30 22:11:01;;;;;;;24.03;7.43;;;;;;;;;;6176886;23;20227;-95
2023/12/30 22:14:07;;;;;;;29.33;7.60;;;;;;;;;;6157613;23;20664;-94
2023/12/30 22:17:13;;;;;;;59.77;24.70;;;;;;;;;;6174301;23;20160;-93
2023/12/30 22:20:19;;;;;;;66.80;30.00;;;;;;;;;;6158676;23;20184;-93
2023/12/30 22:23:25;;;;;;;17.17;6.37;;;;;;;;;;6159020;23;20495;-94
2023/12/30 22:26:33;;;;;;;21.87;8.20;;;;;;;;;;6159320;23;20172;-94
2023/12/30 22:29:39;;;;;;;26.17;7.50;;;;;;;;;;6157925;23;20241;-93
2023/12/30 22:32:50;;;;;;;18.93;6.67;;;;;;;;;;6158051;23;20172;-94
2023/12/30 22:35:56;;;;;;;39.73;8.43;;;;;;;;;;6159015;23;20209;-94
2023/12/30 22:39:02;;;;;;;54.17;8.03;;;;;;;;;;6157892;23;20168;-95
2023/12/30 22:42:09;;;;;;;44.67;8.57;;;;;;;;;;6157619;23;20213;-94
2023/12/30 22:45:15;;;;;;;56.13;8.43;;;;;;;;;;6156864;23;20193;-95
2023/12/30 22:48:21;;;;;;;35.97;7.50;;;;;;;;;;6168084;23;20196;-94
2023/12/30 22:51:28;;;;;;;69.73;8.17;;;;;;;;;;6175989;23;20221;-94
2023/12/30 22:54:34;;;;;;;21.43;7.50;;;;;;;;;;6174737;23;20252;-94
2023/12/30 22:57:41;;;;;;;25.70;7.30;;;;;;;;;;6176084;23;20216;-94
2023/12/30 23:00:50;;;;;;;21.63;7.40;;;;;;;;;;6175487;23;20228;-94
2023/12/30 23:03:57;;;;;;;71.20;21.73;;;;;;;;;;6174597;23;20248;-95
2023/12/30 23:07:02;;;;;;;27.43;7.97;;;;;;;;;;6176816;23;20173;-94
2023/12/30 23:10:11;;;;;;;14.80;6.57;;;;;;;;;;6176745;23;20172;-93
2023/12/30 23:13:19;;;;;;;19.43;7.70;;;;;;;;;;6176149;23;20257;-95
2023/12/30 23:16:25;;;;;;;23.53;8.73;;;;;;;;;;6161097;23;20157;-92
2023/12/30 23:19:30;;;;;;;17.47;7.73;;;;;;;;;;6160436;23;20221;-95
2023/12/30 23:22:36;;;;;;;30.50;7.27;;;;;;;;;;6160765;23;20183;-94
2023/12/30 23:25:42;;;;;;;31.77;7.57;;;;;;;;;;6159601;23;20208;-95
2023/12/30 23:28:51;;;;;;;25.87;7.07;;;;;;;;;;6158881;23;20160;-93
2023/12/30 23:31:56;;;;;;;34.20;7.60;;;;;;;;;;6158555;23;20156;-92
2023/12/30 23:35:04;;;;;;;26.93;8.00;;;;;;;;;;6175419;23;20168;-94
2023/12/30 23:38:09;;;;;;;21.53;6.97;;;;;;;;;;6157965;23;20165;-94
2023/12/30 23:41:16;;;;;;;21.80;7.33;;;;;;;;;;6157519;23;20659;-94
2023/12/30 23:44:24;;;;;;;21.60;7.60;;;;;;;;;;6158726;23;20165;-93
2023/12/30 23:47:30;;;;;;;72.23;7.37;;;;;;;;;;6159006;23;20164;-96
2023/12/30 23:50:36;;;;;;;54.87;7.70;;;;;;;;;;6158695;23;20176;-94
2023/12/30 23:53:41;;;;;;;26.47;7.83;;;;;;;;;;6157129;23;20172;-93
2023/12/30 23:56:47;;;;;;;46.93;7.90;;;;;;;;;;6157531;23;20169;-94
2023/12/30 23:59:55;;;;;;;72.13;8.83;;;;;;;;;;6157283;23;20641;-93
